sensor_id;sensor_type;location;lat;lon;timestamp;P1;durP1;ratioP1;P2;durP2;ratioP2
80694;SDS011;70059;42.702;23.312;2023-07-16T00:00:50;18.42;;;16.65;;
80694;SDS011;70059;42.702;23.312;2023-07-16T00:03:16;18.38;;;16.52;;
80694;SDS011;70059;42.702;23.312;2023-07-16T00:05:42;18.77;;;16.98;;
80694;SDS011;70059;42.702;23.312;2023-07-16T00:08:07;18.40;;;16.38;;
80694;SDS011;70059;42.702;23.312;2023-07-16T00:10:36;18.25;;;16.40;;
80694;SDS011;70059;42.702;23.312;2023-07-16T00:13:03;17.63;;;16.08;;
80694;SDS011;70059;42.702;23.312;2023-07-16T00:15:29;18.02;;;16.20;;
80694;SDS011;70059;42.702;23.312;2023-07-16T00:17:55;18.33;;;16.45;;
80694;SDS011;70059;42.702;23.312;2023-07-16T00:20:21;18.17;;;15.93;;
80694;SDS011;70059;42.702;23.312;2023-07-16T00:22:49;19.85;;;15.90;;
80694;SDS011;70059;42.702;23.312;2023-07-16T00:25:15;17.48;;;15.80;;
80694;SDS011;70059;42.702;23.312;2023-07-16T00:27:40;17.08;;;15.40;;
80694;SDS011;70059;42.702;23.312;2023-07-16T00:30:06;17.70;;;15.35;;
80694;SDS011;70059;42.702;23.312;2023-07-16T00:32:32;17.17;;;15.77;;
80694;SDS011;70059;42.702;23.312;2023-07-16T00:34:58;17.95;;;15.00;;
80694;SDS011;70059;42.702;23.312;2023-07-16T00:37:24;16.90;;;15.15;;
80694;SDS011;70059;42.702;23.312;2023-07-16T00:39:50;16.27;;;14.82;;
80694;SDS011;70059;42.702;23.312;2023-07-16T00:42:16;15.77;;;14.45;;
80694;SDS011;70059;42.702;23.312;2023-07-16T00:44:41;16.27;;;14.75;;
80694;SDS011;70059;42.702;23.312;2023-07-16T00:47:08;17.70;;;16.00;;
80694;SDS011;70059;42.702;23.312;2023-07-16T00:49:34;17.15;;;15.57;;
80694;SDS011;70059;42.702;23.312;2023-07-16T00:52:00;17.20;;;15.55;;
80694;SDS011;70059;42.702;23.312;2023-07-16T00:54:27;15.93;;;14.65;;
80694;SDS011;70059;42.702;23.312;2023-07-16T00:56:57;16.60;;;14.95;;
80694;SDS011;70059;42.702;23.312;2023-07-16T00:59:23;17.08;;;15.30;;
80694;SDS011;70059;42.702;23.312;2023-07-16T01:01:48;16.23;;;14.73;;
80694;SDS011;70059;42.702;23.312;2023-07-16T01:04:14;15.48;;;13.98;;
80694;SDS011;70059;42.702;23.312;2023-07-16T01:06:41;15.32;;;13.93;;
80694;SDS011;70059;42.702;23.312;2023-07-16T01:11:45;15.20;;;13.90;;
80694;SDS011;70059;42.702;23.312;2023-07-16T01:14:12;16.20;;;14.20;;
80694;SDS011;70059;42.702;23.312;2023-07-16T01:16:40;16.05;;;14.45;;
80694;SDS011;70059;42.702;23.312;2023-07-16T01:19:06;15.10;;;13.60;;
80694;SDS011;70059;42.702;23.312;2023-07-16T01:21:50;16.42;;;14.90;;
80694;SDS011;70059;42.702;23.312;2023-07-16T01:30:24;17.77;;;14.00;;
80694;SDS011;70059;42.702;23.312;2023-07-16T01:32:53;14.90;;;13.60;;
80694;SDS011;70059;42.702;23.312;2023-07-16T01:35:19;15.52;;;14.13;;
80694;SDS011;70059;42.702;23.312;2023-07-16T01:37:45;15.90;;;14.40;;
80694;SDS011;70059;42.702;23.312;2023-07-16T01:40:11;14.98;;;13.63;;
80694;SDS011;70059;42.702;23.312;2023-07-16T01:42:37;15.63;;;14.23;;
80694;SDS011;70059;42.702;23.312;2023-07-16T01:45:03;15.48;;;14.15;;
80694;SDS011;70059;42.702;23.312;2023-07-16T01:50:05;15.95;;;14.40;;
80694;SDS011;70059;42.702;23.312;2023-07-16T01:52:32;15.82;;;14.30;;
80694;SDS011;70059;42.702;23.312;2023-07-16T01:54:57;16.13;;;14.43;;
80694;SDS011;70059;42.702;23.312;2023-07-16T01:57:23;14.75;;;13.45;;
80694;SDS011;70059;42.702;23.312;2023-07-16T01:59:48;15.40;;;14.05;;
80694;SDS011;70059;42.702;23.312;2023-07-16T02:02:14;16.60;;;14.05;;
80694;SDS011;70059;42.702;23.312;2023-07-16T02:04:40;15.48;;;13.45;;
80694;SDS011;70059;42.702;23.312;2023-07-16T02:07:05;16.42;;;13.63;;
80694;SDS011;70059;42.702;23.312;2023-07-16T02:09:33;14.45;;;13.20;;
80694;SDS011;70059;42.702;23.312;2023-07-16T02:12:00;14.93;;;13.52;;
80694;SDS011;70059;42.702;23.312;2023-07-16T02:14:25;14.93;;;13.52;;
80694;SDS011;70059;42.702;23.312;2023-07-16T02:16:51;14.10;;;12.75;;
80694;SDS011;70059;42.702;23.312;2023-07-16T02:19:17;13.98;;;12.60;;
80694;SDS011;70059;42.702;23.312;2023-07-16T02:21:42;14.93;;;13.32;;
80694;SDS011;70059;42.702;23.312;2023-07-16T02:24:08;14.27;;;12.95;;
80694;SDS011;70059;42.702;23.312;2023-07-16T02:26:34;13.95;;;12.75;;
80694;SDS011;70059;42.702;23.312;2023-07-16T02:28:59;18.48;;;13.85;;
80694;SDS011;70059;42.702;23.312;2023-07-16T02:31:25;15.60;;;14.20;;
80694;SDS011;70059;42.702;23.312;2023-07-16T02:33:51;15.77;;;14.32;;
80694;SDS011;70059;42.702;23.312;2023-07-16T02:36:16;15.32;;;13.93;;
80694;SDS011;70059;42.702;23.312;2023-07-16T02:38:42;15.77;;;14.35;;
80694;SDS011;70059;42.702;23.312;2023-07-16T02:41:08;15.95;;;14.30;;
80694;SDS011;70059;42.702;23.312;2023-07-16T02:43:33;15.80;;;14.43;;
80694;SDS011;70059;42.702;23.312;2023-07-16T02:45:59;15.38;;;14.02;;
80694;SDS011;70059;42.702;23.312;2023-07-16T02:48:25;16.58;;;14.95;;
80694;SDS011;70059;42.702;23.312;2023-07-16T02:50:50;15.32;;;13.73;;
80694;SDS011;70059;42.702;23.312;2023-07-16T02:53:16;14.82;;;13.38;;
80694;SDS011;70059;42.702;23.312;2023-07-16T02:55:42;13.45;;;12.35;;
80694;SDS011;70059;42.702;23.312;2023-07-16T02:58:10;14.38;;;13.00;;
80694;SDS011;70059;42.702;23.312;2023-07-16T03:00:36;13.88;;;12.77;;
80694;SDS011;70059;42.702;23.312;2023-07-16T03:03:01;14.60;;;13.20;;
80694;SDS011;70059;42.702;23.312;2023-07-16T03:05:27;13.65;;;12.20;;
80694;SDS011;70059;42.702;23.312;2023-07-16T03:07:53;14.05;;;12.38;;
80694;SDS011;70059;42.702;23.312;2023-07-16T03:10:20;14.23;;;12.65;;
80694;SDS011;70059;42.702;23.312;2023-07-16T03:12:46;14.13;;;12.57;;
80694;SDS011;70059;42.702;23.312;2023-07-16T03:15:12;14.10;;;12.85;;
80694;SDS011;70059;42.702;23.312;2023-07-16T03:17:38;14.30;;;12.93;;
80694;SDS011;70059;42.702;23.312;2023-07-16T03:20:04;14.20;;;12.85;;
80694;SDS011;70059;42.702;23.312;2023-07-16T03:22:30;14.45;;;13.15;;
80694;SDS011;70059;42.702;23.312;2023-07-16T03:24:56;13.48;;;12.25;;
80694;SDS011;70059;42.702;23.312;2023-07-16T03:27:22;14.38;;;13.05;;
80694;SDS011;70059;42.702;23.312;2023-07-16T03:29:48;14.18;;;12.98;;
80694;SDS011;70059;42.702;23.312;2023-07-16T03:32:14;14.68;;;13.10;;
80694;SDS011;70059;42.702;23.312;2023-07-16T03:34:39;14.40;;;12.95;;
80694;SDS011;70059;42.702;23.312;2023-07-16T03:37:05;14.52;;;13.13;;
80694;SDS011;70059;42.702;23.312;2023-07-16T03:39:31;14.80;;;13.32;;
80694;SDS011;70059;42.702;23.312;2023-07-16T03:41:57;14.55;;;13.13;;
80694;SDS011;70059;42.702;23.312;2023-07-16T03:44:22;13.82;;;12.57;;
80694;SDS011;70059;42.702;23.312;2023-07-16T03:46:48;14.07;;;12.88;;
80694;SDS011;70059;42.702;23.312;2023-07-16T03:49:14;14.18;;;12.77;;
80694;SDS011;70059;42.702;23.312;2023-07-16T03:51:39;15.05;;;13.30;;
80694;SDS011;70059;42.702;23.312;2023-07-16T03:54:05;15.07;;;13.05;;
80694;SDS011;70059;42.702;23.312;2023-07-16T03:56:31;14.25;;;13.02;;
80694;SDS011;70059;42.702;23.312;2023-07-16T03:58:56;13.93;;;12.63;;
80694;SDS011;70059;42.702;23.312;2023-07-16T04:01:22;17.20;;;13.25;;
80694;SDS011;70059;42.702;23.312;2023-07-16T04:03:47;14.23;;;12.75;;
80694;SDS011;70059;42.702;23.312;2023-07-16T04:06:13;13.85;;;12.75;;
80694;SDS011;70059;42.702;23.312;2023-07-16T04:08:39;14.73;;;13.43;;
80694;SDS011;70059;42.702;23.312;2023-07-16T04:11:04;15.60;;;14.05;;
80694;SDS011;70059;42.702;23.312;2023-07-16T04:13:31;14.85;;;13.35;;
80694;SDS011;70059;42.702;23.312;2023-07-16T04:15:56;14.88;;;13.48;;
80694;SDS011;70059;42.702;23.312;2023-07-16T04:18:23;15.45;;;13.45;;
80694;SDS011;70059;42.702;23.312;2023-07-16T04:20:52;14.90;;;13.52;;
80694;SDS011;70059;42.702;23.312;2023-07-16T04:23:18;14.45;;;12.98;;
80694;SDS011;70059;42.702;23.312;2023-07-16T04:25:43;15.23;;;13.75;;
80694;SDS011;70059;42.702;23.312;2023-07-16T04:28:10;14.95;;;13.60;;
80694;SDS011;70059;42.702;23.312;2023-07-16T04:30:36;14.15;;;12.85;;
80694;SDS011;70059;42.702;23.312;2023-07-16T04:33:03;14.75;;;13.02;;
80694;SDS011;70059;42.702;23.312;2023-07-16T04:35:29;15.30;;;13.32;;
80694;SDS011;70059;42.702;23.312;2023-07-16T04:37:55;15.23;;;13.68;;
80694;SDS011;70059;42.702;23.312;2023-07-16T04:40:24;16.02;;;12.98;;
80694;SDS011;70059;42.702;23.312;2023-07-16T04:42:49;13.90;;;12.60;;
80694;SDS011;70059;42.702;23.312;2023-07-16T04:45:15;13.75;;;12.50;;
80694;SDS011;70059;42.702;23.312;2023-07-16T04:47:41;15.07;;;13.68;;
80694;SDS011;70059;42.702;23.312;2023-07-16T04:50:07;14.98;;;13.65;;
80694;SDS011;70059;42.702;23.312;2023-07-16T04:52:33;16.08;;;13.63;;
80694;SDS011;70059;42.702;23.312;2023-07-16T04:54:59;14.63;;;13.20;;
80694;SDS011;70059;42.702;23.312;2023-07-16T04:57:24;14.23;;;12.90;;
80694;SDS011;70059;42.702;23.312;2023-07-16T04:59:50;14.48;;;13.18;;
80694;SDS011;70059;42.702;23.312;2023-07-16T05:02:17;14.23;;;13.02;;
80694;SDS011;70059;42.702;23.312;2023-07-16T05:04:43;14.15;;;12.85;;
80694;SDS011;70059;42.702;23.312;2023-07-16T05:07:09;15.23;;;13.73;;
80694;SDS011;70059;42.702;23.312;2023-07-16T05:09:35;14.25;;;13.02;;
80694;SDS011;70059;42.702;23.312;2023-07-16T05:12:01;14.38;;;13.20;;
80694;SDS011;70059;42.702;23.312;2023-07-16T05:14:27;14.73;;;13.30;;
80694;SDS011;70059;42.702;23.312;2023-07-16T05:16:53;14.35;;;13.02;;
80694;SDS011;70059;42.702;23.312;2023-07-16T05:19:20;14.27;;;13.00;;
80694;SDS011;70059;42.702;23.312;2023-07-16T05:21:45;15.05;;;13.63;;
80694;SDS011;70059;42.702;23.312;2023-07-16T05:24:11;15.57;;;14.00;;
80694;SDS011;70059;42.702;23.312;2023-07-16T05:26:37;15.48;;;13.90;;
80694;SDS011;70059;42.702;23.312;2023-07-16T05:29:03;14.15;;;12.98;;
80694;SDS011;70059;42.702;23.312;2023-07-16T05:31:29;15.25;;;13.93;;
80694;SDS011;70059;42.702;23.312;2023-07-16T05:33:55;15.00;;;13.43;;
80694;SDS011;70059;42.702;23.312;2023-07-16T05:36:21;14.63;;;13.32;;
80694;SDS011;70059;42.702;23.312;2023-07-16T05:38:47;14.98;;;13.30;;
80694;SDS011;70059;42.702;23.312;2023-07-16T05:41:12;15.07;;;13.68;;
80694;SDS011;70059;42.702;23.312;2023-07-16T05:43:38;16.52;;;13.45;;
80694;SDS011;70059;42.702;23.312;2023-07-16T05:46:04;24.90;;;15.35;;
80694;SDS011;70059;42.702;23.312;2023-07-16T05:48:30;15.75;;;14.20;;
80694;SDS011;70059;42.702;23.312;2023-07-16T05:50:56;31.05;;;15.13;;
80694;SDS011;70059;42.702;23.312;2023-07-16T05:53:22;14.52;;;13.02;;
80694;SDS011;70059;42.702;23.312;2023-07-16T05:55:47;14.73;;;13.23;;
80694;SDS011;70059;42.702;23.312;2023-07-16T05:58:14;14.50;;;13.30;;
80694;SDS011;70059;42.702;23.312;2023-07-16T06:00:41;14.32;;;12.93;;
80694;SDS011;70059;42.702;23.312;2023-07-16T06:03:06;14.15;;;12.85;;
80694;SDS011;70059;42.702;23.312;2023-07-16T06:05:32;14.85;;;13.48;;
80694;SDS011;70059;42.702;23.312;2023-07-16T06:07:59;15.65;;;12.93;;
80694;SDS011;70059;42.702;23.312;2023-07-16T06:10:26;14.73;;;13.32;;
80694;SDS011;70059;42.702;23.312;2023-07-16T06:12:51;15.95;;;12.95;;
80694;SDS011;70059;42.702;23.312;2023-07-16T06:15:17;13.55;;;12.25;;
80694;SDS011;70059;42.702;23.312;2023-07-16T06:17:42;14.23;;;13.05;;
80694;SDS011;70059;42.702;23.312;2023-07-16T06:20:08;14.80;;;13.50;;
80694;SDS011;70059;42.702;23.312;2023-07-16T06:22:34;15.65;;;13.43;;
80694;SDS011;70059;42.702;23.312;2023-07-16T06:25:00;14.23;;;13.02;;
80694;SDS011;70059;42.702;23.312;2023-07-16T06:27:26;14.20;;;13.00;;
80694;SDS011;70059;42.702;23.312;2023-07-16T06:29:51;14.02;;;12.65;;
80694;SDS011;70059;42.702;23.312;2023-07-16T06:32:17;14.07;;;12.90;;
80694;SDS011;70059;42.702;23.312;2023-07-16T06:34:43;15.02;;;13.73;;
80694;SDS011;70059;42.702;23.312;2023-07-16T06:37:10;14.95;;;13.15;;
80694;SDS011;70059;42.702;23.312;2023-07-16T06:39:36;14.73;;;13.32;;
80694;SDS011;70059;42.702;23.312;2023-07-16T06:42:02;13.75;;;12.45;;
80694;SDS011;70059;42.702;23.312;2023-07-16T06:44:28;15.50;;;13.18;;
80694;SDS011;70059;42.702;23.312;2023-07-16T06:46:54;14.07;;;12.88;;
80694;SDS011;70059;42.702;23.312;2023-07-16T06:49:21;14.43;;;13.23;;
80694;SDS011;70059;42.702;23.312;2023-07-16T06:51:46;13.75;;;12.73;;
80694;SDS011;70059;42.702;23.312;2023-07-16T06:54:12;13.07;;;11.88;;
80694;SDS011;70059;42.702;23.312;2023-07-16T06:56:38;13.80;;;12.57;;
80694;SDS011;70059;42.702;23.312;2023-07-16T06:59:03;13.70;;;12.70;;
80694;SDS011;70059;42.702;23.312;2023-07-16T07:01:29;13.98;;;12.73;;
80694;SDS011;70059;42.702;23.312;2023-07-16T07:03:55;14.75;;;13.30;;
80694;SDS011;70059;42.702;23.312;2023-07-16T07:06:20;15.18;;;13.57;;
80694;SDS011;70059;42.702;23.312;2023-07-16T07:08:47;14.60;;;13.40;;
80694;SDS011;70059;42.702;23.312;2023-07-16T07:11:12;13.98;;;12.80;;
80694;SDS011;70059;42.702;23.312;2023-07-16T07:13:38;14.82;;;13.40;;
80694;SDS011;70059;42.702;23.312;2023-07-16T07:16:04;12.68;;;11.68;;
80694;SDS011;70059;42.702;23.312;2023-07-16T07:18:29;15.63;;;14.18;;
80694;SDS011;70059;42.702;23.312;2023-07-16T07:20:55;14.43;;;13.32;;
80694;SDS011;70059;42.702;23.312;2023-07-16T07:23:21;14.38;;;13.07;;
80694;SDS011;70059;42.702;23.312;2023-07-16T07:25:50;14.32;;;13.10;;
80694;SDS011;70059;42.702;23.312;2023-07-16T07:28:16;14.80;;;13.30;;
80694;SDS011;70059;42.702;23.312;2023-07-16T07:30:42;14.48;;;13.02;;
80694;SDS011;70059;42.702;23.312;2023-07-16T07:33:08;14.82;;;12.95;;
80694;SDS011;70059;42.702;23.312;2023-07-16T07:35:34;14.57;;;13.38;;
80694;SDS011;70059;42.702;23.312;2023-07-16T07:38:00;17.58;;;14.02;;
80694;SDS011;70059;42.702;23.312;2023-07-16T07:40:26;15.00;;;13.70;;
80694;SDS011;70059;42.702;23.312;2023-07-16T07:42:51;14.20;;;13.05;;
80694;SDS011;70059;42.702;23.312;2023-07-16T07:45:17;14.43;;;13.10;;
80694;SDS011;70059;42.702;23.312;2023-07-16T07:47:43;13.63;;;12.52;;
80694;SDS011;70059;42.702;23.312;2023-07-16T07:50:09;14.50;;;13.02;;
80694;SDS011;70059;42.702;23.312;2023-07-16T07:52:35;14.07;;;12.63;;
80694;SDS011;70059;42.702;23.312;2023-07-16T07:55:00;15.23;;;13.75;;
80694;SDS011;70059;42.702;23.312;2023-07-16T07:57:26;13.82;;;12.82;;
80694;SDS011;70059;42.702;23.312;2023-07-16T07:59:52;14.65;;;13.18;;
80694;SDS011;70059;42.702;23.312;2023-07-16T08:02:22;14.18;;;13.00;;
80694;SDS011;70059;42.702;23.312;2023-07-16T08:04:52;15.52;;;13.70;;
80694;SDS011;70059;42.702;23.312;2023-07-16T08:07:18;14.45;;;13.18;;
80694;SDS011;70059;42.702;23.312;2023-07-16T08:09:45;13.82;;;12.63;;
80694;SDS011;70059;42.702;23.312;2023-07-16T08:12:11;13.98;;;12.85;;
80694;SDS011;70059;42.702;23.312;2023-07-16T08:14:37;14.02;;;12.90;;
80694;SDS011;70059;42.702;23.312;2023-07-16T08:17:02;14.88;;;13.63;;
80694;SDS011;70059;42.702;23.312;2023-07-16T08:19:28;15.10;;;13.80;;
80694;SDS011;70059;42.702;23.312;2023-07-16T08:21:54;16.02;;;14.65;;
80694;SDS011;70059;42.702;23.312;2023-07-16T08:24:20;16.20;;;14.55;;
80694;SDS011;70059;42.702;23.312;2023-07-16T08:26:45;15.75;;;14.65;;
80694;SDS011;70059;42.702;23.312;2023-07-16T08:29:11;16.33;;;14.90;;
80694;SDS011;70059;42.702;23.312;2023-07-16T08:31:36;15.18;;;13.88;;
80694;SDS011;70059;42.702;23.312;2023-07-16T08:34:02;16.33;;;15.13;;
80694;SDS011;70059;42.702;23.312;2023-07-16T08:36:28;15.70;;;14.40;;
80694;SDS011;70059;42.702;23.312;2023-07-16T08:38:53;16.02;;;14.80;;
80694;SDS011;70059;42.702;23.312;2023-07-16T08:41:19;15.40;;;14.20;;
80694;SDS011;70059;42.702;23.312;2023-07-16T08:43:46;16.95;;;14.77;;
80694;SDS011;70059;42.702;23.312;2023-07-16T08:46:15;16.05;;;14.73;;
80694;SDS011;70059;42.702;23.312;2023-07-16T08:48:41;16.23;;;14.65;;
80694;SDS011;70059;42.702;23.312;2023-07-16T08:51:07;16.13;;;14.85;;
80694;SDS011;70059;42.702;23.312;2023-07-16T08:53:36;15.55;;;14.38;;
80694;SDS011;70059;42.702;23.312;2023-07-16T08:56:02;17.10;;;15.55;;
80694;SDS011;70059;42.702;23.312;2023-07-16T08:58:30;16.50;;;14.87;;
80694;SDS011;70059;42.702;23.312;2023-07-16T09:00:56;17.48;;;16.15;;
80694;SDS011;70059;42.702;23.312;2023-07-16T09:03:24;16.70;;;15.40;;
80694;SDS011;70059;42.702;23.312;2023-07-16T09:05:50;18.40;;;16.70;;
80694;SDS011;70059;42.702;23.312;2023-07-16T09:08:15;19.33;;;17.42;;
80694;SDS011;70059;42.702;23.312;2023-07-16T09:10:42;17.88;;;16.52;;
80694;SDS011;70059;42.702;23.312;2023-07-16T09:13:08;17.15;;;15.43;;
80694;SDS011;70059;42.702;23.312;2023-07-16T09:15:35;16.95;;;15.60;;
80694;SDS011;70059;42.702;23.312;2023-07-16T09:18:00;16.65;;;15.35;;
80694;SDS011;70059;42.702;23.312;2023-07-16T09:20:27;16.20;;;15.00;;
80694;SDS011;70059;42.702;23.312;2023-07-16T09:22:56;17.77;;;16.10;;
80694;SDS011;70059;42.702;23.312;2023-07-16T09:25:29;16.48;;;15.18;;
80694;SDS011;70059;42.702;23.312;2023-07-16T09:27:57;18.50;;;15.85;;
80694;SDS011;70059;42.702;23.312;2023-07-16T09:30:30;16.92;;;15.32;;
80694;SDS011;70059;42.702;23.312;2023-07-16T09:32:58;17.17;;;15.77;;
80694;SDS011;70059;42.702;23.312;2023-07-16T09:35:28;16.95;;;15.57;;
80694;SDS011;70059;42.702;23.312;2023-07-16T09:37:54;17.20;;;15.85;;
80694;SDS011;70059;42.702;23.312;2023-07-16T09:40:20;17.75;;;16.02;;
80694;SDS011;70059;42.702;23.312;2023-07-16T09:42:46;18.60;;;16.88;;
80694;SDS011;70059;42.702;23.312;2023-07-16T09:45:21;19.30;;;17.70;;
80694;SDS011;70059;42.702;23.312;2023-07-16T09:47:47;18.33;;;16.90;;
80694;SDS011;70059;42.702;23.312;2023-07-16T09:50:12;18.02;;;16.42;;
80694;SDS011;70059;42.702;23.312;2023-07-16T09:52:38;18.10;;;16.70;;
80694;SDS011;70059;42.702;23.312;2023-07-16T09:55:05;18.42;;;16.58;;
80694;SDS011;70059;42.702;23.312;2023-07-16T09:57:41;17.65;;;16.25;;
80694;SDS011;70059;42.702;23.312;2023-07-16T10:00:10;18.02;;;16.30;;
80694;SDS011;70059;42.702;23.312;2023-07-16T10:02:38;17.48;;;16.10;;
80694;SDS011;70059;42.702;23.312;2023-07-16T10:05:38;18.00;;;16.60;;
80694;SDS011;70059;42.702;23.312;2023-07-16T10:08:01;19.63;;;17.90;;
80694;SDS011;70059;42.702;23.312;2023-07-16T10:10:45;18.05;;;16.45;;
80694;SDS011;70059;42.702;23.312;2023-07-16T10:13:29;19.40;;;17.75;;
80694;SDS011;70059;42.702;23.312;2023-07-16T10:15:58;18.40;;;17.10;;
80694;SDS011;70059;42.702;23.312;2023-07-16T10:18:28;20.20;;;18.65;;
80694;SDS011;70059;42.702;23.312;2023-07-16T10:21:05;19.73;;;18.10;;
80694;SDS011;70059;42.702;23.312;2023-07-16T10:23:41;19.20;;;17.77;;
80694;SDS011;70059;42.702;23.312;2023-07-16T10:26:12;19.70;;;17.75;;
80694;SDS011;70059;42.702;23.312;2023-07-16T10:28:40;18.88;;;17.13;;
80694;SDS011;70059;42.702;23.312;2023-07-16T10:31:06;18.63;;;17.10;;
80694;SDS011;70059;42.702;23.312;2023-07-16T10:33:43;18.15;;;16.65;;
80694;SDS011;70059;42.702;23.312;2023-07-16T10:36:08;19.25;;;17.55;;
80694;SDS011;70059;42.702;23.312;2023-07-16T10:38:41;18.55;;;16.95;;
80694;SDS011;70059;42.702;23.312;2023-07-16T10:41:09;19.67;;;17.85;;
80694;SDS011;70059;42.702;23.312;2023-07-16T10:43:35;19.52;;;17.63;;
80694;SDS011;70059;42.702;23.312;2023-07-16T10:46:02;19.70;;;17.30;;
80694;SDS011;70059;42.702;23.312;2023-07-16T10:48:30;19.02;;;17.27;;
80694;SDS011;70059;42.702;23.312;2023-07-16T10:50:56;18.23;;;16.77;;
80694;SDS011;70059;42.702;23.312;2023-07-16T10:53:22;21.95;;;17.48;;
80694;SDS011;70059;42.702;23.312;2023-07-16T10:55:47;18.08;;;16.63;;
80694;SDS011;70059;42.702;23.312;2023-07-16T10:58:13;18.90;;;17.35;;
80694;SDS011;70059;42.702;23.312;2023-07-16T11:00:39;19.58;;;17.67;;
80694;SDS011;70059;42.702;23.312;2023-07-16T11:03:05;17.30;;;15.90;;
80694;SDS011;70059;42.702;23.312;2023-07-16T11:05:31;18.83;;;17.33;;
80694;SDS011;70059;42.702;23.312;2023-07-16T11:07:57;19.50;;;18.02;;
80694;SDS011;70059;42.702;23.312;2023-07-16T11:10:23;18.27;;;16.80;;
80694;SDS011;70059;42.702;23.312;2023-07-16T11:12:50;19.13;;;17.55;;
80694;SDS011;70059;42.702;23.312;2023-07-16T11:15:29;18.92;;;17.33;;
80694;SDS011;70059;42.702;23.312;2023-07-16T11:20:24;20.70;;;18.90;;
80694;SDS011;70059;42.702;23.312;2023-07-16T11:22:50;20.25;;;18.75;;
80694;SDS011;70059;42.702;23.312;2023-07-16T11:25:15;20.38;;;18.58;;
80694;SDS011;70059;42.702;23.312;2023-07-16T11:27:42;20.08;;;18.20;;
80694;SDS011;70059;42.702;23.312;2023-07-16T11:30:08;19.63;;;18.13;;
80694;SDS011;70059;42.702;23.312;2023-07-16T11:32:35;20.38;;;18.27;;
80694;SDS011;70059;42.702;23.312;2023-07-16T11:35:03;19.77;;;17.92;;
80694;SDS011;70059;42.702;23.312;2023-07-16T11:37:31;19.30;;;17.80;;
80694;SDS011;70059;42.702;23.312;2023-07-16T11:40:02;19.30;;;17.70;;
80694;SDS011;70059;42.702;23.312;2023-07-16T11:42:33;19.85;;;18.35;;
80694;SDS011;70059;42.702;23.312;2023-07-16T11:45:00;18.60;;;17.05;;
80694;SDS011;70059;42.702;23.312;2023-07-16T11:47:26;19.67;;;18.08;;
80694;SDS011;70059;42.702;23.312;2023-07-16T11:49:52;19.38;;;17.65;;
80694;SDS011;70059;42.702;23.312;2023-07-16T11:52:25;18.70;;;17.27;;
80694;SDS011;70059;42.702;23.312;2023-07-16T11:54:52;18.60;;;17.10;;
80694;SDS011;70059;42.702;23.312;2023-07-16T11:57:19;18.65;;;17.08;;
80694;SDS011;70059;42.702;23.312;2023-07-16T11:59:45;18.92;;;17.08;;
80694;SDS011;70059;42.702;23.312;2023-07-16T12:02:11;18.65;;;17.15;;
80694;SDS011;70059;42.702;23.312;2023-07-16T12:04:37;18.40;;;16.90;;
80694;SDS011;70059;42.702;23.312;2023-07-16T12:07:03;17.08;;;15.88;;
80694;SDS011;70059;42.702;23.312;2023-07-16T12:09:28;17.48;;;16.08;;
80694;SDS011;70059;42.702;23.312;2023-07-16T12:11:54;17.65;;;16.10;;
80694;SDS011;70059;42.702;23.312;2023-07-16T12:14:20;18.13;;;16.73;;
80694;SDS011;70059;42.702;23.312;2023-07-16T12:16:46;18.65;;;16.98;;
80694;SDS011;70059;42.702;23.312;2023-07-16T12:19:12;19.92;;;18.30;;
80694;SDS011;70059;42.702;23.312;2023-07-16T12:21:38;18.88;;;17.48;;
80694;SDS011;70059;42.702;23.312;2023-07-16T12:24:04;19.67;;;17.90;;
80694;SDS011;70059;42.702;23.312;2023-07-16T12:26:30;19.73;;;17.83;;
80694;SDS011;70059;42.702;23.312;2023-07-16T12:28:56;18.50;;;16.90;;
80694;SDS011;70059;42.702;23.312;2023-07-16T12:31:21;18.27;;;16.75;;
80694;SDS011;70059;42.702;23.312;2023-07-16T12:36:16;19.02;;;17.23;;
80694;SDS011;70059;42.702;23.312;2023-07-16T12:38:44;18.65;;;17.15;;
80694;SDS011;70059;42.702;23.312;2023-07-16T12:41:09;19.20;;;17.45;;
80694;SDS011;70059;42.702;23.312;2023-07-16T12:43:35;19.50;;;17.88;;
80694;SDS011;70059;42.702;23.312;2023-07-16T12:46:01;18.20;;;16.73;;
80694;SDS011;70059;42.702;23.312;2023-07-16T12:48:30;20.90;;;19.30;;
80694;SDS011;70059;42.702;23.312;2023-07-16T12:50:56;18.33;;;16.85;;
80694;SDS011;70059;42.702;23.312;2023-07-16T12:53:22;18.27;;;16.73;;
80694;SDS011;70059;42.702;23.312;2023-07-16T12:55:49;17.08;;;15.35;;
80694;SDS011;70059;42.702;23.312;2023-07-16T12:58:15;18.48;;;16.50;;
80694;SDS011;70059;42.702;23.312;2023-07-16T13:00:41;19.10;;;17.50;;
80694;SDS011;70059;42.702;23.312;2023-07-16T13:03:06;18.63;;;16.83;;
80694;SDS011;70059;42.702;23.312;2023-07-16T13:05:36;18.63;;;16.75;;
80694;SDS011;70059;42.702;23.312;2023-07-16T13:08:05;18.30;;;16.60;;
80694;SDS011;70059;42.702;23.312;2023-07-16T13:10:30;18.52;;;16.77;;
80694;SDS011;70059;42.702;23.312;2023-07-16T13:12:56;18.50;;;16.90;;
80694;SDS011;70059;42.702;23.312;2023-07-16T13:15:22;18.30;;;16.83;;
80694;SDS011;70059;42.702;23.312;2023-07-16T13:17:47;19.02;;;17.48;;
80694;SDS011;70059;42.702;23.312;2023-07-16T13:20:13;18.42;;;16.67;;
80694;SDS011;70059;42.702;23.312;2023-07-16T13:22:39;17.92;;;16.38;;
80694;SDS011;70059;42.702;23.312;2023-07-16T13:25:05;18.20;;;16.63;;
80694;SDS011;70059;42.702;23.312;2023-07-16T13:27:31;18.20;;;16.70;;
80694;SDS011;70059;42.702;23.312;2023-07-16T13:29:57;19.52;;;17.52;;
80694;SDS011;70059;42.702;23.312;2023-07-16T13:32:23;18.00;;;16.40;;
80694;SDS011;70059;42.702;23.312;2023-07-16T13:34:48;18.65;;;16.75;;
80694;SDS011;70059;42.702;23.312;2023-07-16T13:37:14;16.83;;;15.63;;
80694;SDS011;70059;42.702;23.312;2023-07-16T13:39:40;17.80;;;16.30;;
80694;SDS011;70059;42.702;23.312;2023-07-16T13:42:06;18.27;;;16.75;;
80694;SDS011;70059;42.702;23.312;2023-07-16T13:44:32;16.38;;;15.05;;
80694;SDS011;70059;42.702;23.312;2023-07-16T13:46:58;17.27;;;15.80;;
80694;SDS011;70059;42.702;23.312;2023-07-16T13:49:24;17.05;;;15.73;;
80694;SDS011;70059;42.702;23.312;2023-07-16T13:51:50;17.92;;;16.33;;
80694;SDS011;70059;42.702;23.312;2023-07-16T13:54:15;18.10;;;16.55;;
80694;SDS011;70059;42.702;23.312;2023-07-16T13:56:41;17.75;;;16.35;;
80694;SDS011;70059;42.702;23.312;2023-07-16T13:59:07;17.90;;;16.05;;
80694;SDS011;70059;42.702;23.312;2023-07-16T14:01:32;17.92;;;16.40;;
80694;SDS011;70059;42.702;23.312;2023-07-16T14:03:58;18.25;;;16.83;;
80694;SDS011;70059;42.702;23.312;2023-07-16T14:06:24;18.65;;;16.95;;
80694;SDS011;70059;42.702;23.312;2023-07-16T14:08:49;16.70;;;15.38;;
80694;SDS011;70059;42.702;23.312;2023-07-16T14:11:15;17.73;;;16.33;;
80694;SDS011;70059;42.702;23.312;2023-07-16T14:13:43;20.88;;;16.92;;
80694;SDS011;70059;42.702;23.312;2023-07-16T14:16:09;18.20;;;16.67;;
80694;SDS011;70059;42.702;23.312;2023-07-16T14:18:38;20.50;;;18.70;;
80694;SDS011;70059;42.702;23.312;2023-07-16T14:21:04;17.43;;;15.97;;